sensor_id;sensor_type;location;lat;lon;timestamp;P1;durP1;ratioP1;P2;durP2;ratioP2
3991;SDS011;2010;48.194;16.394;2023-01-23T00:02:11;37.20;;;21.00;;
3991;SDS011;2010;48.194;16.394;2023-01-23T00:04:47;37.80;;;21.50;;
3991;SDS011;2010;48.194;16.394;2023-01-23T00:10:07;40.53;;;23.57;;
3991;SDS011;2010;48.194;16.394;2023-01-23T00:12:39;38.37;;;23.70;;
3991;SDS011;2010;48.194;16.394;2023-01-23T00:15:13;38.80;;;22.03;;
3991;SDS011;2010;48.194;16.394;2023-01-23T00:17:49;39.00;;;21.33;;
3991;SDS011;2010;48.194;16.394;2023-01-23T00:20:22;33.63;;;20.90;;
3991;SDS011;2010;48.194;16.394;2023-01-23T00:22:51;32.23;;;20.50;;
3991;SDS011;2010;48.194;16.394;2023-01-23T00:28:22;35.30;;;20.50;;
3991;SDS011;2010;48.194;16.394;2023-01-23T00:31:03;35.53;;;22.17;;
3991;SDS011;2010;48.194;16.394;2023-01-23T00:48:56;37.00;;;20.10;;
3991;SDS011;2010;48.194;16.394;2023-01-23T00:51:28;35.37;;;19.87;;
3991;SDS011;2010;48.194;16.394;2023-01-23T00:53:58;39.73;;;21.27;;
3991;SDS011;2010;48.194;16.394;2023-01-23T01:08:44;42.07;;;20.63;;
3991;SDS011;2010;48.194;16.394;2023-01-23T02:07:23;44.20;;;22.83;;
3991;SDS011;2010;48.194;16.394;2023-01-23T02:36:51;43.30;;;24.33;;
3991;SDS011;2010;48.194;16.394;2023-01-23T02:39:25;43.23;;;24.63;;
3991;SDS011;2010;48.194;16.394;2023-01-23T02:42:05;52.93;;;26.50;;
3991;SDS011;2010;48.194;16.394;2023-01-23T02:47:50;48.50;;;24.17;;
3991;SDS011;2010;48.194;16.394;2023-01-23T02:50:22;47.83;;;26.37;;
3991;SDS011;2010;48.194;16.394;2023-01-23T02:52:53;52.73;;;25.00;;
3991;SDS011;2010;48.194;16.394;2023-01-23T02:55:32;43.43;;;23.03;;
3991;SDS011;2010;48.194;16.394;2023-01-23T02:58:05;47.77;;;24.90;;
3991;SDS011;2010;48.194;16.394;2023-01-23T03:01:03;47.57;;;24.20;;
3991;SDS011;2010;48.194;16.394;2023-01-23T03:03:33;50.13;;;24.90;;
3991;SDS011;2010;48.194;16.394;2023-01-23T03:06:02;52.87;;;25.90;;
3991;SDS011;2010;48.194;16.394;2023-01-23T03:08:39;49.83;;;26.67;;
3991;SDS011;2010;48.194;16.394;2023-01-23T03:11:16;45.77;;;25.83;;
3991;SDS011;2010;48.194;16.394;2023-01-23T03:13:46;43.73;;;23.97;;
3991;SDS011;2010;48.194;16.394;2023-01-23T03:16:16;49.30;;;26.83;;
3991;SDS011;2010;48.194;16.394;2023-01-23T03:18:50;40.23;;;23.33;;
3991;SDS011;2010;48.194;16.394;2023-01-23T03:21:27;50.40;;;25.90;;
3991;SDS011;2010;48.194;16.394;2023-01-23T03:24:07;50.27;;;25.70;;
3991;SDS011;2010;48.194;16.394;2023-01-23T03:26:44;47.03;;;24.47;;
3991;SDS011;2010;48.194;16.394;2023-01-23T03:29:21;52.20;;;28.20;;
3991;SDS011;2010;48.194;16.394;2023-01-23T03:32:24;48.40;;;25.03;;
3991;SDS011;2010;48.194;16.394;2023-01-23T03:34:56;61.03;;;27.47;;
3991;SDS011;2010;48.194;16.394;2023-01-23T03:37:26;49.37;;;26.40;;
3991;SDS011;2010;48.194;16.394;2023-01-23T03:40:02;55.70;;;27.03;;
3991;SDS011;2010;48.194;16.394;2023-01-23T03:46:26;47.90;;;24.97;;
3991;SDS011;2010;48.194;16.394;2023-01-23T04:00:52;51.00;;;26.50;;
3991;SDS011;2010;48.194;16.394;2023-01-23T04:03:40;59.33;;;29.27;;
3991;SDS011;2010;48.194;16.394;2023-01-23T04:06:13;57.10;;;28.43;;
3991;SDS011;2010;48.194;16.394;2023-01-23T04:08:46;54.53;;;28.30;;
3991;SDS011;2010;48.194;16.394;2023-01-23T04:11:16;57.40;;;26.00;;
3991;SDS011;2010;48.194;16.394;2023-01-23T04:13:52;47.20;;;26.30;;
3991;SDS011;2010;48.194;16.394;2023-01-23T04:16:21;57.60;;;28.10;;
3991;SDS011;2010;48.194;16.394;2023-01-23T04:19:38;59.43;;;30.17;;
3991;SDS011;2010;48.194;16.394;2023-01-23T04:28:42;55.67;;;27.63;;
3991;SDS011;2010;48.194;16.394;2023-01-23T04:31:33;58.13;;;27.40;;
3991;SDS011;2010;48.194;16.394;2023-01-23T04:34:13;58.13;;;28.77;;
3991;SDS011;2010;48.194;16.394;2023-01-23T04:36:53;59.30;;;28.07;;
3991;SDS011;2010;48.194;16.394;2023-01-23T04:45:35;60.30;;;27.30;;
3991;SDS011;2010;48.194;16.394;2023-01-23T07:25:00;31.13;;;17.77;;
3991;SDS011;2010;48.194;16.394;2023-01-23T07:27:40;33.83;;;18.27;;
3991;SDS011;2010;48.194;16.394;2023-01-23T07:30:11;33.10;;;19.70;;
3991;SDS011;2010;48.194;16.394;2023-01-23T08:32:59;37.13;;;21.10;;
3991;SDS011;2010;48.194;16.394;2023-01-23T08:35:33;34.33;;;19.70;;
3991;SDS011;2010;48.194;16.394;2023-01-23T08:38:02;36.33;;;21.03;;
3991;SDS011;2010;48.194;16.394;2023-01-23T08:40:37;34.73;;;20.93;;
3991;SDS011;2010;48.194;16.394;2023-01-23T08:43:06;34.37;;;19.63;;
3991;SDS011;2010;48.194;16.394;2023-01-23T08:45:38;39.53;;;20.90;;
3991;SDS011;2010;48.194;16.394;2023-01-23T08:48:12;40.50;;;21.53;;
3991;SDS011;2010;48.194;16.394;2023-01-23T09:38:18;41.17;;;21.40;;
3991;SDS011;2010;48.194;16.394;2023-01-23T09:40:48;43.37;;;22.23;;
3991;SDS011;2010;48.194;16.394;2023-01-23T09:43:26;40.27;;;20.17;;
3991;SDS011;2010;48.194;16.394;2023-01-23T09:46:10;39.10;;;19.80;;
3991;SDS011;2010;48.194;16.394;2023-01-23T09:48:46;36.97;;;20.20;;
3991;SDS011;2010;48.194;16.394;2023-01-23T09:51:25;37.43;;;20.47;;
3991;SDS011;2010;48.194;16.394;2023-01-23T09:54:11;37.83;;;17.70;;
3991;SDS011;2010;48.194;16.394;2023-01-23T09:56:45;33.53;;;18.67;;
3991;SDS011;2010;48.194;16.394;2023-01-23T09:59:24;32.70;;;18.63;;
3991;SDS011;2010;48.194;16.394;2023-01-23T10:02:25;28.40;;;16.57;;
3991;SDS011;2010;48.194;16.394;2023-01-23T10:04:57;35.73;;;18.63;;
3991;SDS011;2010;48.194;16.394;2023-01-23T10:07:32;30.40;;;17.17;;
3991;SDS011;2010;48.194;16.394;2023-01-23T10:10:15;26.57;;;16.10;;
3991;SDS011;2010;48.194;16.394;2023-01-23T10:13:01;30.37;;;17.33;;
3991;SDS011;2010;48.194;16.394;2023-01-23T10:15:51;30.43;;;15.97;;
3991;SDS011;2010;48.194;16.394;2023-01-23T10:18:41;26.97;;;14.90;;
3991;SDS011;2010;48.194;16.394;2023-01-23T10:21:24;31.73;;;15.60;;
3991;SDS011;2010;48.194;16.394;2023-01-23T10:24:03;31.80;;;16.67;;
3991;SDS011;2010;48.194;16.394;2023-01-23T10:26:47;30.00;;;16.60;;
3991;SDS011;2010;48.194;16.394;2023-01-23T10:29:20;33.27;;;16.33;;
3991;SDS011;2010;48.194;16.394;2023-01-23T10:31:58;31.50;;;18.00;;
3991;SDS011;2010;48.194;16.394;2023-01-23T10:34:34;25.30;;;14.90;;
3991;SDS011;2010;48.194;16.394;2023-01-23T10:37:11;22.10;;;14.70;;
3991;SDS011;2010;48.194;16.394;2023-01-23T10:43:14;29.27;;;16.10;;
3991;SDS011;2010;48.194;16.394;2023-01-23T10:46:26;29.53;;;15.50;;
3991;SDS011;2010;48.194;16.394;2023-01-23T10:49:00;31.27;;;16.03;;
3991;SDS011;2010;48.194;16.394;2023-01-23T10:51:41;27.57;;;16.37;;
3991;SDS011;2010;48.194;16.394;2023-01-23T10:54:17;43.13;;;21.70;;
3991;SDS011;2010;48.194;16.394;2023-01-23T10:57:19;24.87;;;15.30;;
3991;SDS011;2010;48.194;16.394;2023-01-23T11:00:00;31.93;;;16.77;;
3991;SDS011;2010;48.194;16.394;2023-01-23T11:02:35;31.17;;;16.93;;
3991;SDS011;2010;48.194;16.394;2023-01-23T11:05:30;31.20;;;18.07;;
3991;SDS011;2010;48.194;16.394;2023-01-23T11:08:26;27.03;;;16.67;;
3991;SDS011;2010;48.194;16.394;2023-01-23T11:14:02;32.70;;;15.87;;
3991;SDS011;2010;48.194;16.394;2023-01-23T11:16:39;30.93;;;16.50;;
3991;SDS011;2010;48.194;16.394;2023-01-23T11:19:14;25.83;;;15.23;;
3991;SDS011;2010;48.194;16.394;2023-01-23T11:22:25;28.03;;;16.40;;
3991;SDS011;2010;48.194;16.394;2023-01-23T11:24:55;31.53;;;16.93;;
3991;SDS011;2010;48.194;16.394;2023-01-23T11:27:27;30.10;;;17.60;;
3991;SDS011;2010;48.194;16.394;2023-01-23T11:35:52;26.67;;;17.10;;
3991;SDS011;2010;48.194;16.394;2023-01-23T11:38:59;26.27;;;15.37;;
3991;SDS011;2010;48.194;16.394;2023-01-23T11:41:33;26.93;;;17.07;;
3991;SDS011;2010;48.194;16.394;2023-01-23T11:44:07;33.53;;;17.40;;
3991;SDS011;2010;48.194;16.394;2023-01-23T11:46:59;27.67;;;16.30;;
3991;SDS011;2010;48.194;16.394;2023-01-23T11:53:25;24.40;;;14.83;;
3991;SDS011;2010;48.194;16.394;2023-01-23T11:59:11;30.27;;;15.77;;
3991;SDS011;2010;48.194;16.394;2023-01-23T12:02:23;29.07;;;16.17;;
3991;SDS011;2010;48.194;16.394;2023-01-23T12:05:25;31.13;;;20.20;;
3991;SDS011;2010;48.194;16.394;2023-01-23T12:08:26;28.80;;;16.97;;
3991;SDS011;2010;48.194;16.394;2023-01-23T12:11:16;25.67;;;16.57;;
3991;SDS011;2010;48.194;16.394;2023-01-23T12:14:01;23.90;;;16.37;;
3991;SDS011;2010;48.194;16.394;2023-01-23T12:16:38;30.50;;;16.80;;
3991;SDS011;2010;48.194;16.394;2023-01-23T12:19:53;31.17;;;18.03;;
3991;SDS011;2010;48.194;16.394;2023-01-23T12:22:35;25.13;;;15.73;;
3991;SDS011;2010;48.194;16.394;2023-01-23T12:25:22;27.00;;;16.13;;
3991;SDS011;2010;48.194;16.394;2023-01-23T12:28:04;23.03;;;15.90;;
3991;SDS011;2010;48.194;16.394;2023-01-23T12:30:49;23.67;;;15.30;;
3991;SDS011;2010;48.194;16.394;2023-01-23T12:33:41;27.07;;;16.40;;
3991;SDS011;2010;48.194;16.394;2023-01-23T12:36:38;26.37;;;15.43;;
3991;SDS011;2010;48.194;16.394;2023-01-23T12:39:42;24.53;;;16.40;;
3991;SDS011;2010;48.194;16.394;2023-01-23T12:42:25;24.93;;;15.27;;
3991;SDS011;2010;48.194;16.394;2023-01-23T12:45:02;29.67;;;15.73;;
3991;SDS011;2010;48.194;16.394;2023-01-23T12:47:43;24.00;;;16.37;;
3991;SDS011;2010;48.194;16.394;2023-01-23T12:50:20;25.50;;;18.03;;
3991;SDS011;2010;48.194;16.394;2023-01-23T12:52:57;25.87;;;17.10;;
3991;SDS011;2010;48.194;16.394;2023-01-23T12:55:32;29.07;;;16.50;;
3991;SDS011;2010;48.194;16.394;2023-01-23T12:58:17;30.67;;;17.80;;
3991;SDS011;2010;48.194;16.394;2023-01-23T13:01:03;26.00;;;15.63;;
3991;SDS011;2010;48.194;16.394;2023-01-23T13:03:58;23.10;;;15.63;;
3991;SDS011;2010;48.194;16.394;2023-01-23T13:06:40;21.80;;;15.03;;
3991;SDS011;2010;48.194;16.394;2023-01-23T13:09:26;24.00;;;14.67;;
3991;SDS011;2010;48.194;16.394;2023-01-23T13:12:03;24.63;;;16.20;;
3991;SDS011;2010;48.194;16.394;2023-01-23T13:14:52;26.07;;;17.00;;
3991;SDS011;2010;48.194;16.394;2023-01-23T13:17:40;24.00;;;15.67;;
3991;SDS011;2010;48.194;16.394;2023-01-23T13:20:24;27.73;;;15.53;;
3991;SDS011;2010;48.194;16.394;2023-01-23T13:23:20;24.50;;;14.60;;
3991;SDS011;2010;48.194;16.394;2023-01-23T13:29:00;22.63;;;15.87;;
3991;SDS011;2010;48.194;16.394;2023-01-23T13:31:54;27.30;;;16.73;;
3991;SDS011;2010;48.194;16.394;2023-01-23T13:34:51;23.97;;;14.70;;
3991;SDS011;2010;48.194;16.394;2023-01-23T13:40:26;24.73;;;16.10;;
3991;SDS011;2010;48.194;16.394;2023-01-23T13:42:58;26.03;;;16.23;;
3991;SDS011;2010;48.194;16.394;2023-01-23T13:46:00;25.37;;;15.67;;
3991;SDS011;2010;48.194;16.394;2023-01-23T13:48:40;21.17;;;14.90;;
3991;SDS011;2010;48.194;16.394;2023-01-23T13:51:48;24.53;;;15.73;;
3991;SDS011;2010;48.194;16.394;2023-01-23T13:54:31;25.93;;;15.67;;
3991;SDS011;2010;48.194;16.394;2023-01-23T13:57:34;26.27;;;15.30;;
3991;SDS011;2010;48.194;16.394;2023-01-23T14:00:21;24.37;;;15.70;;
3991;SDS011;2010;48.194;16.394;2023-01-23T14:03:15;23.80;;;15.60;;
3991;SDS011;2010;48.194;16.394;2023-01-23T14:06:33;25.63;;;16.40;;
3991;SDS011;2010;48.194;16.394;2023-01-23T14:09:19;26.20;;;15.13;;
3991;SDS011;2010;48.194;16.394;2023-01-23T14:15:21;24.10;;;14.63;;
3991;SDS011;2010;48.194;16.394;2023-01-23T14:18:29;28.10;;;14.63;;
3991;SDS011;2010;48.194;16.394;2023-01-23T14:21:30;25.13;;;16.47;;
3991;SDS011;2010;48.194;16.394;2023-01-23T14:24:19;21.90;;;14.20;;
3991;SDS011;2010;48.194;16.394;2023-01-23T14:26:52;28.63;;;16.87;;
3991;SDS011;2010;48.194;16.394;2023-01-23T14:29:35;27.50;;;16.80;;
3991;SDS011;2010;48.194;16.394;2023-01-23T14:32:18;28.23;;;15.70;;
3991;SDS011;2010;48.194;16.394;2023-01-23T14:34:52;24.23;;;14.83;;
3991;SDS011;2010;48.194;16.394;2023-01-23T14:37:25;25.00;;;15.90;;
3991;SDS011;2010;48.194;16.394;2023-01-23T14:39:55;21.27;;;14.13;;
3991;SDS011;2010;48.194;16.394;2023-01-23T14:42:33;25.40;;;15.80;;
3991;SDS011;2010;48.194;16.394;2023-01-23T14:45:02;22.37;;;14.77;;
3991;SDS011;2010;48.194;16.394;2023-01-23T14:47:32;20.97;;;14.00;;
3991;SDS011;2010;48.194;16.394;2023-01-23T14:50:15;22.57;;;15.67;;
3991;SDS011;2010;48.194;16.394;2023-01-23T14:55:38;19.80;;;14.60;;
3991;SDS011;2010;48.194;16.394;2023-01-23T14:58:21;22.23;;;14.90;;
3991;SDS011;2010;48.194;16.394;2023-01-23T15:01:03;23.30;;;14.77;;
3991;SDS011;2010;48.194;16.394;2023-01-23T15:03:41;20.40;;;13.80;;
3991;SDS011;2010;48.194;16.394;2023-01-23T15:06:20;21.73;;;14.03;;
3991;SDS011;2010;48.194;16.394;2023-01-23T15:08:55;22.27;;;15.50;;
3991;SDS011;2010;48.194;16.394;2023-01-23T15:11:53;22.30;;;15.47;;
3991;SDS011;2010;48.194;16.394;2023-01-23T15:14:32;21.97;;;14.30;;
3991;SDS011;2010;48.194;16.394;2023-01-23T15:17:12;20.20;;;13.97;;
3991;SDS011;2010;48.194;16.394;2023-01-23T15:19:54;19.17;;;13.10;;
3991;SDS011;2010;48.194;16.394;2023-01-23T15:22:24;20.50;;;12.87;;
3991;SDS011;2010;48.194;16.394;2023-01-23T15:24:57;21.83;;;13.50;;
3991;SDS011;2010;48.194;16.394;2023-01-23T15:27:49;21.93;;;13.60;;
3991;SDS011;2010;48.194;16.394;2023-01-23T15:30:35;31.57;;;14.57;;
3991;SDS011;2010;48.194;16.394;2023-01-23T15:33:21;22.93;;;14.20;;
3991;SDS011;2010;48.194;16.394;2023-01-23T15:35:55;23.23;;;13.10;;
3991;SDS011;2010;48.194;16.394;2023-01-23T15:38:32;27.93;;;13.83;;
3991;SDS011;2010;48.194;16.394;2023-01-23T15:41:15;20.97;;;13.97;;
3991;SDS011;2010;48.194;16.394;2023-01-23T15:44:01;17.70;;;12.53;;
3991;SDS011;2010;48.194;16.394;2023-01-23T15:46:32;28.93;;;14.17;;
3991;SDS011;2010;48.194;16.394;2023-01-23T15:49:31;21.33;;;13.43;;
3991;SDS011;2010;48.194;16.394;2023-01-23T15:52:12;26.00;;;14.20;;
3991;SDS011;2010;48.194;16.394;2023-01-23T15:54:51;25.93;;;13.40;;
3991;SDS011;2010;48.194;16.394;2023-01-23T15:57:29;23.90;;;13.37;;
3991;SDS011;2010;48.194;16.394;2023-01-23T16:00:14;29.47;;;13.50;;
3991;SDS011;2010;48.194;16.394;2023-01-23T16:02:47;19.90;;;12.30;;
3991;SDS011;2010;48.194;16.394;2023-01-23T16:05:24;20.83;;;13.60;;
3991;SDS011;2010;48.194;16.394;2023-01-23T16:07:58;18.73;;;12.37;;
3991;SDS011;2010;48.194;16.394;2023-01-23T16:10:30;19.53;;;12.77;;
3991;SDS011;2010;48.194;16.394;2023-01-23T16:13:10;22.80;;;14.17;;
3991;SDS011;2010;48.194;16.394;2023-01-23T16:15:53;21.87;;;14.20;;
3991;SDS011;2010;48.194;16.394;2023-01-23T16:18:23;20.13;;;13.30;;
3991;SDS011;2010;48.194;16.394;2023-01-23T16:21:12;21.87;;;12.80;;
3991;SDS011;2010;48.194;16.394;2023-01-23T16:24:14;21.27;;;15.17;;
3991;SDS011;2010;48.194;16.394;2023-01-23T16:26:58;22.67;;;14.17;;
3991;SDS011;2010;48.194;16.394;2023-01-23T16:32:34;23.50;;;14.47;;
3991;SDS011;2010;48.194;16.394;2023-01-23T16:35:05;21.17;;;14.60;;
3991;SDS011;2010;48.194;16.394;2023-01-23T16:37:44;23.73;;;14.20;;
3991;SDS011;2010;48.194;16.394;2023-01-23T16:40:16;21.23;;;12.60;;
3991;SDS011;2010;48.194;16.394;2023-01-23T16:43:01;22.50;;;14.87;;
3991;SDS011;2010;48.194;16.394;2023-01-23T16:45:44;20.97;;;14.20;;
3991;SDS011;2010;48.194;16.394;2023-01-23T16:48:28;21.93;;;13.00;;
3991;SDS011;2010;48.194;16.394;2023-01-23T16:51:03;19.97;;;13.37;;
3991;SDS011;2010;48.194;16.394;2023-01-23T16:53:36;22.07;;;14.30;;
3991;SDS011;2010;48.194;16.394;2023-01-23T16:56:17;23.83;;;15.23;;
3991;SDS011;2010;48.194;16.394;2023-01-23T16:58:49;21.10;;;14.33;;
3991;SDS011;2010;48.194;16.394;2023-01-23T17:01:21;28.00;;;15.60;;
3991;SDS011;2010;48.194;16.394;2023-01-23T17:03:53;25.30;;;14.70;;
3991;SDS011;2010;48.194;16.394;2023-01-23T17:06:30;24.80;;;14.70;;
3991;SDS011;2010;48.194;16.394;2023-01-23T17:09:14;24.57;;;15.87;;
3991;SDS011;2010;48.194;16.394;2023-01-23T17:11:46;27.23;;;16.43;;
3991;SDS011;2010;48.194;16.394;2023-01-23T17:14:23;28.50;;;17.80;;
3991;SDS011;2010;48.194;16.394;2023-01-23T17:17:01;25.63;;;16.10;;
3991;SDS011;2010;48.194;16.394;2023-01-23T17:19:37;24.60;;;15.80;;
3991;SDS011;2010;48.194;16.394;2023-01-23T17:22:11;27.10;;;17.03;;
3991;SDS011;2010;48.194;16.394;2023-01-23T17:24:55;24.17;;;16.10;;
3991;SDS011;2010;48.194;16.394;2023-01-23T17:27:28;23.30;;;16.03;;
3991;SDS011;2010;48.194;16.394;2023-01-23T17:30:14;28.10;;;16.80;;
3991;SDS011;2010;48.194;16.394;2023-01-23T17:33:00;23.13;;;15.97;;
3991;SDS011;2010;48.194;16.394;2023-01-23T17:35:44;22.57;;;15.57;;
3991;SDS011;2010;48.194;16.394;2023-01-23T17:38:27;25.50;;;17.80;;
3991;SDS011;2010;48.194;16.394;2023-01-23T17:41:13;27.23;;;16.20;;
3991;SDS011;2010;48.194;16.394;2023-01-23T17:43:53;23.80;;;13.87;;
3991;SDS011;2010;48.194;16.394;2023-01-23T17:46:23;27.03;;;15.80;;
3991;SDS011;2010;48.194;16.394;2023-01-23T17:52:09;29.67;;;17.33;;
3991;SDS011;2010;48.194;16.394;2023-01-23T17:54:39;23.53;;;16.10;;
3991;SDS011;2010;48.194;16.394;2023-01-23T17:57:18;23.43;;;15.03;;
3991;SDS011;2010;48.194;16.394;2023-01-23T17:59:49;26.20;;;16.63;;
3991;SDS011;2010;48.194;16.394;2023-01-23T18:02:54;24.73;;;15.30;;
3991;SDS011;2010;48.194;16.394;2023-01-23T18:05:34;25.47;;;16.40;;
3991;SDS011;2010;48.194;16.394;2023-01-23T18:08:13;25.50;;;15.30;;
3991;SDS011;2010;48.194;16.394;2023-01-23T18:10:46;22.90;;;16.40;;
3991;SDS011;2010;48.194;16.394;2023-01-23T18:13:22;27.13;;;16.50;;
3991;SDS011;2010;48.194;16.394;2023-01-23T18:16:03;25.90;;;15.77;;
3991;SDS011;2010;48.194;16.394;2023-01-23T18:18:55;31.60;;;16.47;;
3991;SDS011;2010;48.194;16.394;2023-01-23T18:24:38;23.80;;;15.60;;
3991;SDS011;2010;48.194;16.394;2023-01-23T18:27:13;28.17;;;17.67;;
3991;SDS011;2010;48.194;16.394;2023-01-23T18:30:17;23.03;;;15.80;;
3991;SDS011;2010;48.194;16.394;2023-01-23T18:32:57;28.30;;;17.30;;
3991;SDS011;2010;48.194;16.394;2023-01-23T18:35:55;28.57;;;17.30;;
3991;SDS011;2010;48.194;16.394;2023-01-23T18:38:42;30.70;;;17.57;;
3991;SDS011;2010;48.194;16.394;2023-01-23T18:41:26;30.87;;;17.93;;
3991;SDS011;2010;48.194;16.394;2023-01-23T18:44:09;28.20;;;17.43;;
3991;SDS011;2010;48.194;16.394;2023-01-23T18:46:43;27.80;;;17.43;;
3991;SDS011;2010;48.194;16.394;2023-01-23T18:49:15;29.90;;;18.10;;
3991;SDS011;2010;48.194;16.394;2023-01-23T18:52:05;25.37;;;16.97;;
3991;SDS011;2010;48.194;16.394;2023-01-23T18:54:57;30.17;;;18.97;;
3991;SDS011;2010;48.194;16.394;2023-01-23T18:58:01;31.30;;;17.93;;
3991;SDS011;2010;48.194;16.394;2023-01-23T19:01:14;25.47;;;16.87;;
3991;SDS011;2010;48.194;16.394;2023-01-23T19:04:16;27.17;;;16.33;;
3991;SDS011;2010;48.194;16.394;2023-01-23T19:07:01;27.37;;;16.07;;
3991;SDS011;2010;48.194;16.394;2023-01-23T19:09:40;31.40;;;17.13;;
3991;SDS011;2010;48.194;16.394;2023-01-23T19:12:29;27.60;;;16.80;;
3991;SDS011;2010;48.194;16.394;2023-01-23T19:15:18;27.27;;;18.20;;
3991;SDS011;2010;48.194;16.394;2023-01-23T19:18:03;32.30;;;17.20;;
3991;SDS011;2010;48.194;16.394;2023-01-23T19:21:11;28.77;;;18.60;;
3991;SDS011;2010;48.194;16.394;2023-01-23T19:24:07;26.10;;;17.30;;
3991;SDS011;2010;48.194;16.394;2023-01-23T19:27:21;35.77;;;19.10;;
3991;SDS011;2010;48.194;16.394;2023-01-23T19:30:16;31.27;;;18.33;;
3991;SDS011;2010;48.194;16.394;2023-01-23T19:33:04;32.37;;;19.20;;
3991;SDS011;2010;48.194;16.394;2023-01-23T19:35:38;32.70;;;19.60;;
3991;SDS011;2010;48.194;16.394;2023-01-23T19:38:16;29.07;;;17.50;;
3991;SDS011;2010;48.194;16.394;2023-01-23T19:47:30;30.10;;;17.50;;
3991;SDS011;2010;48.194;16.394;2023-01-23T19:50:15;32.30;;;18.73;;
3991;SDS011;2010;48.194;16.394;2023-01-23T19:52:56;28.13;;;17.20;;
3991;SDS011;2010;48.194;16.394;2023-01-23T19:55:33;28.97;;;18.90;;
3991;SDS011;2010;48.194;16.394;2023-01-23T19:58:13;27.43;;;17.47;;
3991;SDS011;2010;48.194;16.394;2023-01-23T20:04:13;29.60;;;19.50;;
3991;SDS011;2010;48.194;16.394;2023-01-23T20:06:58;28.40;;;17.77;;
3991;SDS011;2010;48.194;16.394;2023-01-23T20:09:50;32.73;;;19.20;;
3991;SDS011;2010;48.194;16.394;2023-01-23T20:12:22;29.13;;;18.40;;
3991;SDS011;2010;48.194;16.394;2023-01-23T20:15:08;30.47;;;18.57;;
3991;SDS011;2010;48.194;16.394;2023-01-23T20:17:57;25.07;;;16.60;;
3991;SDS011;2010;48.194;16.394;2023-01-23T20:20:43;26.13;;;17.27;;
3991;SDS011;2010;48.194;16.394;2023-01-23T20:23:16;26.87;;;17.83;;
3991;SDS011;2010;48.194;16.394;2023-01-23T20:25:55;29.50;;;19.20;;
3991;SDS011;2010;48.194;16.394;2023-01-23T20:28:32;28.30;;;17.80;;
3991;SDS011;2010;48.194;16.394;2023-01-23T20:31:27;32.40;;;18.67;;
3991;SDS011;2010;48.194;16.394;2023-01-23T20:34:28;30.67;;;19.53;;
3991;SDS011;2010;48.194;16.394;2023-01-23T20:37:11;30.77;;;18.47;;
3991;SDS011;2010;48.194;16.394;2023-01-23T20:40:00;32.83;;;18.90;;
3991;SDS011;2010;48.194;16.394;2023-01-23T20:42:32;28.70;;;18.73;;
3991;SDS011;2010;48.194;16.394;2023-01-23T20:45:11;29.97;;;17.27;;
3991;SDS011;2010;48.194;16.394;2023-01-23T20:47:58;31.60;;;17.63;;
3991;SDS011;2010;48.194;16.394;2023-01-23T20:50:32;29.87;;;19.00;;
3991;SDS011;2010;48.194;16.394;2023-01-23T20:53:14;29.30;;;17.83;;
3991;SDS011;2010;48.194;16.394;2023-01-23T20:56:16;29.63;;;18.53;;
3991;SDS011;2010;48.194;16.394;2023-01-23T20:59:13;31.97;;;18.00;;
3991;SDS011;2010;48.194;16.394;2023-01-23T21:02:08;30.37;;;17.97;;
3991;SDS011;2010;48.194;16.394;2023-01-23T21:04:58;33.40;;;19.63;;
3991;SDS011;2010;48.194;16.394;2023-01-23T21:07:42;38.33;;;19.40;;
3991;SDS011;2010;48.194;16.394;2023-01-23T21:13:11;32.93;;;18.37;;
3991;SDS011;2010;48.194;16.394;2023-01-23T21:15:55;28.27;;;17.27;;
3991;SDS011;2010;48.194;16.394;2023-01-23T21:18:34;30.87;;;18.63;;
3991;SDS011;2010;48.194;16.394;2023-01-23T21:21:23;29.57;;;18.70;;
3991;SDS011;2010;48.194;16.394;2023-01-23T21:23:57;29.40;;;18.13;;
3991;SDS011;2010;48.194;16.394;2023-01-23T21:26:38;25.63;;;17.43;;
3991;SDS011;2010;48.194;16.394;2023-01-23T21:29:10;32.60;;;17.97;;
3991;SDS011;2010;48.194;16.394;2023-01-23T21:31:46;30.80;;;17.70;;
3991;SDS011;2010;48.194;16.394;2023-01-23T21:34:20;29.40;;;18.00;;
3991;SDS011;2010;48.194;16.394;2023-01-23T21:36:53;32.43;;;17.77;;
3991;SDS011;2010;48.194;16.394;2023-01-23T21:39:35;25.70;;;16.30;;
3991;SDS011;2010;48.194;16.394;2023-01-23T21:42:16;28.80;;;17.60;;
3991;SDS011;2010;48.194;16.394;2023-01-23T21:44:49;30.40;;;18.23;;
3991;SDS011;2010;48.194;16.394;2023-01-23T21:47:25;28.37;;;17.10;;
3991;SDS011;2010;48.194;16.394;2023-01-23T21:50:04;28.00;;;16.60;;
3991;SDS011;2010;48.194;16.394;2023-01-23T21:52:38;26.40;;;16.87;;
3991;SDS011;2010;48.194;16.394;2023-01-23T21:55:11;29.90;;;17.80;;
3991;SDS011;2010;48.194;16.394;2023-01-23T21:57:48;30.47;;;17.27;;
3991;SDS011;2010;48.194;16.394;2023-01-23T22:00:17;27.80;;;17.00;;
3991;SDS011;2010;48.194;16.394;2023-01-23T22:03:03;29.87;;;18.73;;
3991;SDS011;2010;48.194;16.394;2023-01-23T22:05:33;27.90;;;19.13;;
3991;SDS011;2010;48.194;16.394;2023-01-23T22:08:07;27.70;;;16.13;;
3991;SDS011;2010;48.194;16.394;2023-01-23T22:10:44;28.63;;;17.90;;
3991;SDS011;2010;48.194;16.394;2023-01-23T22:13:18;28.10;;;16.50;;
3991;SDS011;2010;48.194;16.394;2023-01-23T22:15:55;28.20;;;17.30;;
3991;SDS011;2010;48.194;16.394;2023-01-23T22:18:34;28.60;;;17.10;;
3991;SDS011;2010;48.194;16.394;2023-01-23T22:21:03;24.67;;;16.77;;
3991;SDS011;2010;48.194;16.394;2023-01-23T22:23:39;26.63;;;16.30;;
3991;SDS011;2010;48.194;16.394;2023-01-23T22:26:19;30.40;;;18.00;;
3991;SDS011;2010;48.194;16.394;2023-01-23T22:28:56;25.33;;;16.60;;
3991;SDS011;2010;48.194;16.394;2023-01-23T22:31:34;26.90;;;16.80;;
3991;SDS011;2010;48.194;16.394;2023-01-23T22:34:08;25.07;;;15.70;;
3991;SDS011;2010;48.194;16.394;2023-01-23T22:37:13;27.93;;;14.90;;
3991;SDS011;2010;48.194;16.394;2023-01-23T22:39:51;27.80;;;16.53;;
3991;SDS011;2010;48.194;16.394;2023-01-23T22:42:44;32.27;;;16.23;;
3991;SDS011;2010;48.194;16.394;2023-01-23T22:45:14;23.60;;;15.17;;
3991;SDS011;2010;48.194;16.394;2023-01-23T22:47:50;24.13;;;15.50;;
3991;SDS011;2010;48.194;16.394;2023-01-23T22:50:27;29.57;;;17.10;;
3991;SDS011;2010;48.194;16.394;2023-01-23T22:53:00;26.73;;;14.60;;
3991;SDS011;2010;48.194;16.394;2023-01-23T22:55:31;23.30;;;14.90;;
3991;SDS011;2010;48.194;16.394;2023-01-23T22:58:02;24.00;;;15.57;;
3991;SDS011;2010;48.194;16.394;2023-01-23T23:00:42;27.43;;;16.07;;
3991;SDS011;2010;48.194;16.394;2023-01-23T23:03:37;23.70;;;14.80;;
3991;SDS011;2010;48.194;16.394;2023-01-23T23:06:07;27.57;;;17.10;;
3991;SDS011;2010;48.194;16.394;2023-01-23T23:08:40;26.80;;;17.00;;
3991;SDS011;2010;48.194;16.394;2023-01-23T23:11:17;27.03;;;16.13;;
3991;SDS011;2010;48.194;16.394;2023-01-23T23:14:03;29.97;;;16.97;;
3991;SDS011;2010;48.194;16.394;2023-01-23T23:16:43;25.07;;;16.93;;
3991;SDS011;2010;48.194;16.394;2023-01-23T23:19:16;25.87;;;16.80;;
3991;SDS011;2010;48.194;16.394;2023-01-23T23:21:49;24.50;;;15.70;;
3991;SDS011;2010;48.194;16.394;2023-01-23T23:24:20;27.57;;;16.67;;
3991;SDS011;2010;48.194;16.394;2023-01-23T23:26:58;23.70;;;14.90;;
3991;SDS011;2010;48.194;16.394;2023-01-23T23:29:53;23.50;;;15.87;;
3991;SDS011;2010;48.194;16.394;2023-01-23T23:32:26;24.40;;;15.20;;
3991;SDS011;2010;48.194;16.394;2023-01-23T23:35:13;26.83;;;16.63;;
3991;SDS011;2010;48.194;16.394;2023-01-23T23:37:57;24.73;;;15.37;;
3991;SDS011;2010;48.194;16.394;2023-01-23T23:40:26;30.03;;;16.47;;
3991;SDS011;2010;48.194;16.394;2023-01-23T23:43:12;22.70;;;16.23;;